Sylvania, GA (30467)

1:53 AM EDT on July 12, 2014 (GMT -0400)
Plantation (KJYL) Elev 187 ft | 32.65 °N, 81.60 °W | Change Station

Current weather conditions updated 18 minutes ago

Clear
Clear
73 °F
Feels Like 73 °F
N
0
Wind Variable Wind from North

Today is forecast to be nearly the same temperature as yesterday. Showers and thunderstorms.

Today
High -- | Low -- °F
--% Chance of Precip.
Yesterday
High -- | Low -- °F
Precip. -- in
6:27 AM 8:36 PM
Full, 100% visible
Pressure 30.19 in
Visibility 7.0 miles
Clouds Clear
Dew Point 73 °F
Humidity 100%
Rainfall 0.00 in
Snow Depth Not available.
UV 0 out of 12
Pollen 1.50 out of 12
Air Quality Not available.
Flu Activity Sporadic
METAR KJYL 120535Z AUTO 00000KT 7SM CLR 23/23 A3019 RMK AO2 LTG DSNT SE T02300230

More Conditions Fewer Conditions

Pressure 30.19 in
Visibility 7.0 miles
Clouds Clear
Dew Point 73 °F
Humidity 100%
Rainfall 0.00 in
Snow Depth Not available.
UV 0 out of 12
Pollen 1.50 out of 12
Air Quality Not available.
Flu Activity Sporadic
METAR KJYL 120535Z AUTO 00000KT 7SM CLR 23/23 A3019 RMK AO2 LTG DSNT SE T02300230

More Conditions Fewer Conditions

10-Day Weather Forecast

Almanac

Astronomy

Jul. 12, 2014 Rise Set
Actual Time 6:27 AM EDT 8:36 PM EDT
Civil Twilight 5:59 AM EDT 9:04 PM EDT
Nautical Twilight 5:25 AM EDT 9:38 PM EDT
Astronomical Twilight 4:48 AM EDT 10:15 PM EDT
Moon 8:43 PM EDT 6:40 AM EDT
Length of Visible Light 15h 05m
Length of Day
14h 09m
Tomorrow will be 0m 56s shorter.
Full, 100% of the Moon is Illuminated
Today
Full
Jul 12
Full
Jul 18
Last Quarter
Jul 26
New
Aug 3
First Quarter

Today's Extremes

State Highs State Lows

Community

WunderPhotos

Upload Photos

1,732,713 photos uploaded!

Nearby

Snow Depth

Station Depth Elevation
No new snow has been reported.

Earthquake Activity

City Distance Mag. Time & Date
No recent earthquake activity has been reported nearby.
Minimum magnitude displayed is 2.5.

Coastal Water Temperatures

Place Temperature
No Stations Reporting

Nearby Weather Stations

There are no personal weather stations in this area.